Zia Pueblo, New Mexico
Current Conditions -  °F | °C
As of 8:48 PM on Friday 28 Nov 2014 (Local Time) from KAEG Reporting Station
Clear Clear  
Wind Chill: 37°   Ceiling: Unl
Heat Index: 37°   Visibility: 10mi
Dew Point: 16°   Wind: 0mph
Humidity: 41%   Direction: NA
Pressure: 30.1"   Gusts: NA
Location:  35.5626°N, 106.824°W
Report Text: KAEG 290348Z 00000KT 10SM SKC 03/M09 A3010
Loading
Personal Weather Stations






























Interactive Weather Map New forecast layout! Learn more

10-Day Weather Forecast

Advertisements
Track Severe Weather on mobile